Time,TemperatureF,DewpointF,PressureIn,WindDirection,WindDirectionDegrees,WindSpeedMPH,WindSpeedGustMPH,Humidity,HourlyPrecipIn,Conditions,Clouds,dailyrainin,SoftwareType,DateUTC
2013-03-10 00:00:00,32.7,28.0,30.23,SE,136,2.2,4.5,82,0.00,,---,0.00,VWS V14.01,2013-03-10 08:00:00,
2013-03-10 00:06:00,32.7,28.0,30.23,ENE,76,0.0,0.0,82,0.00,,---,0.00,VWS V14.01,2013-03-10 08:06:00,
2013-03-10 00:12:00,32.5,27.4,30.23,ENE,76,0.0,0.0,81,0.00,,---,0.00,VWS V14.01,2013-03-10 08:12:00,
2013-03-10 00:17:00,32.5,27.8,30.23,SE,136,5.4,5.4,82,0.00,,---,0.00,VWS V14.01,2013-03-10 08:17:00,
2013-03-10 00:23:00,32.5,27.8,30.23,SE,128,2.2,3.6,82,0.00,,---,0.00,VWS V14.01,2013-03-10 08:23:00,
2013-03-10 00:29:00,32.2,27.0,30.23,North,10,3.6,4.0,81,0.00,,---,0.00,VWS V14.01,2013-03-10 08:29:00,
2013-03-10 00:34:00,32.0,26.8,30.23,North,357,3.6,3.6,81,0.00,,---,0.00,VWS V14.01,2013-03-10 08:34:00,
2013-03-10 00:40:00,31.6,26.5,30.23,North,3,3.1,3.1,81,0.00,,---,0.00,VWS V14.01,2013-03-10 08:40:00,
2013-03-10 00:45:00,31.5,26.3,30.23,North,357,2.7,3.6,81,0.00,,---,0.00,VWS V14.01,2013-03-10 08:45:00,
2013-03-10 00:51:00,31.8,27.1,30.23,ESE,111,3.6,3.6,82,0.00,,---,0.00,VWS V14.01,2013-03-10 08:51:00,
2013-03-10 00:56:00,31.8,27.1,30.23,ESE,119,3.1,3.6,82,0.00,,---,0.00,VWS V14.01,2013-03-10 08:56:00,
2013-03-10 01:01:00,31.6,26.9,30.23,WSW,252,2.7,3.6,82,0.00,,---,0.00,VWS V14.01,2013-03-10 09:01:00,
2013-03-10 01:07:00,31.5,26.8,30.23,WSW,251,2.2,2.2,82,0.00,,---,0.00,VWS V14.01,2013-03-10 09:07:00,
2013-03-10 01:13:00,31.3,26.6,30.23,WSW,252,0.0,0.0,82,0.00,,---,0.00,VWS V14.01,2013-03-10 09:13:00,
2013-03-10 01:18:00,31.3,26.6,30.23,WSW,251,0.0,0.0,82,0.00,,---,0.00,VWS V14.01,2013-03-10 09:18:00,
2013-03-10 01:23:00,31.1,26.4,30.23,WSW,251,0.0,0.0,82,0.00,,---,0.00,VWS V14.01,2013-03-10 09:23:00,
2013-03-10 01:29:00,30.9,26.2,30.23,WSW,251,0.0,0.0,82,0.00,,---,0.00,VWS V14.01,2013-03-10 09:29:00,
2013-03-10 01:34:00,30.7,26.0,30.23,WSW,252,0.0,0.0,82,0.00,,---,0.00,VWS V14.01,2013-03-10 09:34:00,
2013-03-10 01:40:00,30.9,26.2,30.23,WSW,249,3.1,3.1,82,0.00,,---,0.00,VWS V14.01,2013-03-10 09:40:00,
2013-03-10 01:46:00,30.9,26.2,30.23,SW,224,4.9,5.4,82,0.00,,---,0.00,VWS V14.01,2013-03-10 09:46:00,
2013-03-10 01:52:00,30.7,26.0,30.23,SSW,209,0.0,0.0,82,0.00,,---,0.00,VWS V14.01,2013-03-10 09:52:00,
2013-03-10 01:58:00,30.7,26.0,30.23,SSW,209,3.1,3.1,82,0.00,,---,0.00,VWS V14.01,2013-03-10 09:58:00,
2013-03-10 03:03:00,30.2,25.5,30.23,SSW,209,0.0,2.7,82,0.00,,---,0.00,VWS V14.01,2013-03-10 10:03:00,
2013-03-10 03:09:00,30.2,25.5,30.23,SSW,209,0.0,0.0,82,0.00,,---,0.00,VWS V14.01,2013-03-10 10:09:00,
2013-03-10 03:14:00,30.0,25.4,30.23,SSW,209,2.2,2.2,82,0.00,,---,0.00,VWS V14.01,2013-03-10 10:14:00,
2013-03-10 03:19:00,30.0,25.4,30.23,SSW,209,0.0,0.0,82,0.00,,---,0.00,VWS V14.01,2013-03-10 10:19:00,
2013-03-10 03:25:00,29.8,25.2,30.23,SSW,209,3.1,3.1,82,0.00,,---,0.00,VWS V14.01,2013-03-10 10:25:00,
2013-03-10 03:31:00,29.7,25.0,30.23,SSW,209,3.6,4.0,82,0.00,,---,0.00,VWS V14.01,2013-03-10 10:31:00,
2013-03-10 03:36:00,29.7,25.4,30.23,SSW,209,2.2,3.1,84,0.00,,---,0.00,VWS V14.01,2013-03-10 10:36:00,
2013-03-10 03:42:00,29.7,25.4,30.23,SSW,209,0.0,0.0,84,0.00,,---,0.00,VWS V14.01,2013-03-10 10:42:00,
2013-03-10 03:47:00,29.7,25.4,30.23,SSW,209,0.0,2.2,84,0.00,,---,0.00,VWS V14.01,2013-03-10 10:47:00,
2013-03-10 03:52:00,29.7,25.4,30.23,SSW,209,3.1,4.0,84,0.00,,---,0.00,VWS V14.01,2013-03-10 10:52:00,
2013-03-10 03:58:00,29.7,25.4,30.23,SSW,209,0.0,2.7,84,0.00,,---,0.00,VWS V14.01,2013-03-10 10:58:00,
2013-03-10 04:04:00,29.8,25.6,30.23,SSW,209,3.1,3.6,84,0.00,,---,0.00,VWS V14.01,2013-03-10 11:04:00,
2013-03-10 04:09:00,29.8,25.6,30.23,SSW,209,0.0,0.0,84,0.00,,---,0.00,VWS V14.01,2013-03-10 11:09:00,
2013-03-10 04:14:00,29.5,25.2,30.23,SSW,209,0.0,3.1,84,0.00,,---,0.00,VWS V14.01,2013-03-10 11:14:00,
2013-03-10 04:20:00,29.1,24.9,30.23,SSW,209,0.0,0.0,84,0.00,,---,0.00,VWS V14.01,2013-03-10 11:20:00,
2013-03-10 04:25:00,29.1,24.9,30.23,SSW,209,0.0,3.1,84,0.00,,---,0.00,VWS V14.01,2013-03-10 11:25:00,
2013-03-10 04:31:00,29.1,24.9,30.23,SSW,209,0.0,0.0,84,0.00,,---,0.00,VWS V14.01,2013-03-10 11:31:00,
2013-03-10 04:36:00,28.9,24.7,30.23,SSW,209,0.0,0.0,84,0.00,,---,0.00,VWS V14.01,2013-03-10 11:36:00,
2013-03-10 04:42:00,29.1,24.9,30.23,SSW,209,3.1,3.6,84,0.00,,---,0.00,VWS V14.01,2013-03-10 11:42:00,
2013-03-10 04:48:00,29.1,25.3,30.23,SSW,209,4.0,4.0,86,0.00,,---,0.00,VWS V14.01,2013-03-10 11:48:00,
2013-03-10 04:54:00,29.3,25.5,30.23,SSW,209,0.0,0.0,86,0.00,,---,0.00,VWS V14.01,2013-03-10 11:54:00,
2013-03-10 05:00:00,29.5,25.7,30.23,SSW,209,3.1,4.0,86,0.00,,---,0.00,VWS V14.01,2013-03-10 12:00:00,
2013-03-10 05:06:00,30.0,26.6,30.23,SSW,209,3.6,3.6,87,0.00,,---,0.00,VWS V14.01,2013-03-10 12:06:00,
2013-03-10 05:12:00,30.9,27.9,30.23,SSW,209,3.6,7.6,88,0.00,,---,0.00,VWS V14.01,2013-03-10 12:12:00,
2013-03-10 05:17:00,31.1,28.9,30.23,SSW,209,4.0,5.4,92,0.00,,---,0.00,VWS V14.01,2013-03-10 12:17:00,
2013-03-10 05:23:00,31.3,29.9,30.23,SSW,209,0.0,0.0,94,0.00,,---,0.00,VWS V14.01,2013-03-10 12:23:00,
2013-03-10 05:28:00,31.5,29.7,30.23,SSW,209,2.2,5.4,93,0.00,,---,0.00,VWS V14.01,2013-03-10 12:28:00,
2013-03-10 05:34:00,31.5,30.1,30.23,SSW,209,3.1,4.0,94,0.00,,---,0.00,VWS V14.01,2013-03-10 12:34:00,
2013-03-10 05:40:00,31.6,29.9,30.23,SSW,209,3.6,6.7,93,0.00,,---,0.00,VWS V14.01,2013-03-10 12:40:00,
2013-03-10 05:46:00,31.6,30.6,30.23,SSW,209,0.0,2.7,96,0.00,,---,0.00,VWS V14.01,2013-03-10 12:46:00,
2013-03-10 05:52:00,31.1,29.3,30.23,SSW,209,0.0,0.0,93,0.00,,---,0.00,VWS V14.01,2013-03-10 12:52:00,
2013-03-10 05:58:00,30.7,29.0,30.23,SSW,209,2.7,6.3,93,0.00,,---,0.00,VWS V14.01,2013-03-10 12:58:00,
2013-03-10 06:03:00,31.5,30.5,30.23,SSW,209,4.0,4.0,96,0.00,,---,0.00,VWS V14.01,2013-03-10 13:03:00,
2013-03-10 06:09:00,31.8,31.8,30.23,SSW,209,3.1,3.6,100,0.00,,---,0.00,VWS V14.01,2013-03-10 13:09:00,
2013-03-10 06:14:00,32.0,32.0,30.23,ENE,75,4.5,7.6,100,0.00,,---,0.00,VWS V14.01,2013-03-10 13:14:00,
2013-03-10 06:20:00,32.0,32.0,30.23,ENE,77,4.0,6.3,100,0.00,,---,0.00,VWS V14.01,2013-03-10 13:20:00,
2013-03-10 06:25:00,31.8,31.8,30.23,NE,45,0.0,2.7,100,0.00,,---,0.00,VWS V14.01,2013-03-10 13:25:00,
2013-03-10 06:31:00,31.6,31.4,30.23,ESE,107,2.7,2.7,99,0.00,,---,0.00,VWS V14.01,2013-03-10 13:31:00,
2013-03-10 06:37:00,31.5,31.2,30.23,East,91,2.7,4.0,99,0.00,,---,0.00,VWS V14.01,2013-03-10 13:37:00,
2013-03-10 06:43:00,31.3,31.0,30.23,NE,42,2.7,3.1,99,0.00,,---,0.00,VWS V14.01,2013-03-10 13:43:00,
2013-03-10 06:49:00,30.9,30.3,30.23,ESE,109,5.4,5.4,98,0.00,,---,0.00,VWS V14.01,2013-03-10 13:49:00,
2013-03-10 06:54:00,31.3,31.0,30.23,East,99,4.5,4.5,99,0.00,,---,0.00,VWS V14.01,2013-03-10 13:54:00,
2013-03-10 06:59:00,31.3,31.3,30.23,ENE,78,6.3,6.3,100,0.00,,---,0.00,VWS V14.01,2013-03-10 13:59:00,
2013-03-10 07:04:00,31.5,30.8,30.23,WNW,298,3.6,4.0,98,0.00,,---,0.00,VWS V14.01,2013-03-10 14:04:00,
2013-03-10 07:10:00,31.6,29.9,30.26,NNW,339,2.2,2.7,93,0.00,,---,0.00,VWS V14.01,2013-03-10 14:10:00,
2013-03-10 07:16:00,31.1,28.1,30.26,NNE,27,4.0,4.0,88,0.00,,---,0.00,VWS V14.01,2013-03-10 14:16:00,
2013-03-10 07:21:00,31.6,28.6,30.26,NE,56,5.8,8.1,88,0.00,,---,0.00,VWS V14.01,2013-03-10 14:21:00,
2013-03-10 07:27:00,33.3,28.1,30.26,NNE,28,5.4,7.6,81,0.00,,---,0.00,VWS V14.01,2013-03-10 14:27:00,
2013-03-10 07:32:00,34.5,27.9,30.26,NE,48,8.1,8.1,76,0.00,,---,0.00,VWS V14.01,2013-03-10 14:32:00,
2013-03-10 07:37:00,36.0,28.3,30.26,ENE,67,5.8,10.1,74,0.00,,---,0.00,VWS V14.01,2013-03-10 14:37:00,
2013-03-10 07:43:00,37.4,28.2,30.26,ENE,65,8.1,10.5,69,0.00,,---,0.00,VWS V14.01,2013-03-10 14:43:00,
2013-03-10 07:49:00,38.3,28.5,30.26,ESE,102,7.6,8.1,68,0.00,,---,0.00,VWS V14.01,2013-03-10 14:49:00,
2013-03-10 07:54:00,39.2,28.2,30.26,East,80,8.3,8.7,64,0.00,,---,0.00,VWS V14.01,2013-03-10 14:54:00,
2013-03-10 08:00:00,40.5,28.9,30.26,ENE,69,5.8,8.7,63,0.00,,---,0.00,VWS V14.01,2013-03-10 15:00:00,
2013-03-10 08:05:00,40.5,28.3,30.26,ENE,73,5.4,8.7,62,0.00,,---,0.00,VWS V14.01,2013-03-10 15:05:00,
2013-03-10 08:11:00,41.2,28.4,30.26,East,86,6.3,8.1,60,0.00,,---,0.00,VWS V14.01,2013-03-10 15:11:00,
2013-03-10 08:16:00,42.3,28.8,30.26,East,86,6.3,8.7,58,0.00,,---,0.00,VWS V14.01,2013-03-10 15:16:00,
2013-03-10 08:22:00,43.5,29.3,30.26,NE,55,8.3,11.0,57,0.00,,---,0.00,VWS V14.01,2013-03-10 15:22:00,
2013-03-10 08:28:00,45.9,30.2,30.26,ENE,76,10.1,10.5,54,0.00,,---,0.00,VWS V14.01,2013-03-10 15:28:00,
2013-03-10 08:33:00,46.9,29.8,30.26,ENE,69,8.1,8.3,51,0.00,,---,0.00,VWS V14.01,2013-03-10 15:33:00,
2013-03-10 08:39:00,47.7,28.2,30.26,NNE,31,6.3,8.1,46,0.00,,---,0.00,VWS V14.01,2013-03-10 15:39:00,
2013-03-10 08:44:00,48.6,28.2,30.26,ENE,77,5.8,5.8,45,0.00,,---,0.00,VWS V14.01,2013-03-10 15:44:00,
2013-03-10 08:50:00,49.5,28.2,30.26,ENE,57,6.3,10.5,44,0.00,,---,0.00,VWS V14.01,2013-03-10 15:50:00,
2013-03-10 08:55:00,50.4,28.2,30.26,ENE,78,8.3,8.7,42,0.00,,---,0.00,VWS V14.01,2013-03-10 15:55:00,
2013-03-10 09:01:00,51.3,28.1,30.26,ENE,60,7.6,8.7,40,0.00,,---,0.00,VWS V14.01,2013-03-10 16:01:00,
2013-03-10 09:06:00,52.0,27.8,30.26,ENE,63,10.1,10.1,39,0.00,,---,0.00,VWS V14.01,2013-03-10 16:06:00,
2013-03-10 09:13:00,53.1,28.8,30.29,ENE,77,5.8,5.8,39,0.00,,---,0.00,VWS V14.01,2013-03-10 16:13:00,
2013-03-10 09:18:00,53.6,26.3,30.29,NE,56,12.3,15.0,34,0.00,,---,0.00,VWS V14.01,2013-03-10 16:18:00,
2013-03-10 09:23:00,54.0,26.6,30.29,East,80,8.1,10.1,34,0.00,,---,0.00,VWS V14.01,2013-03-10 16:23:00,
2013-03-10 09:29:00,54.7,23.9,30.29,East,91,10.1,10.1,30,0.00,,---,0.00,VWS V14.01,2013-03-10 16:29:00,
2013-03-10 09:34:00,54.9,24.0,30.29,NE,52,7.6,11.0,30,0.00,,---,0.00,VWS V14.01,2013-03-10 16:34:00,
2013-03-10 09:39:00,55.6,24.7,30.29,ENE,63,4.0,8.3,30,0.00,,---,0.00,VWS V14.01,2013-03-10 16:39:00,
2013-03-10 09:45:00,55.9,25.0,30.29,ENE,67,8.7,8.7,30,0.00,,---,0.00,VWS V14.01,2013-03-10 16:45:00,
2013-03-10 09:50:00,56.5,25.4,30.29,ENE,69,6.7,8.7,30,0.00,,---,0.00,VWS V14.01,2013-03-10 16:50:00,
2013-03-10 09:56:00,56.7,21.7,30.29,NE,36,11.0,13.2,26,0.00,,---,0.00,VWS V14.01,2013-03-10 16:56:00,
2013-03-10 10:01:00,57.2,22.2,30.29,ENE,72,8.3,12.8,26,0.00,,---,0.00,VWS V14.01,2013-03-10 17:01:00,
2013-03-10 10:07:00,57.7,22.6,30.29,ENE,74,8.7,11.0,26,0.00,,---,0.00,VWS V14.01,2013-03-10 17:07:00,
2013-03-10 10:12:00,58.1,23.0,30.29,ENE,71,12.3,13.2,26,0.00,,---,0.00,VWS V14.01,2013-03-10 17:12:00,
2013-03-10 10:18:00,58.6,23.4,30.29,NE,49,6.3,8.7,26,0.00,,---,0.00,VWS V14.01,2013-03-10 17:18:00,
2013-03-10 10:24:00,59.2,23.9,30.29,NE,53,8.3,10.1,26,0.00,,---,0.00,VWS V14.01,2013-03-10 17:24:00,
2013-03-10 10:29:00,59.2,23.9,30.29,NNE,25,8.7,10.5,26,0.00,,---,0.00,VWS V14.01,2013-03-10 17:29:00,
2013-03-10 10:35:00,59.2,23.9,30.29,NNE,31,9.2,11.0,26,0.00,,---,0.00,VWS V14.01,2013-03-10 17:35:00,
2013-03-10 10:40:00,59.2,23.9,30.29,East,80,5.8,11.0,26,0.00,,---,0.00,VWS V14.01,2013-03-10 17:40:00,
2013-03-10 10:45:00,59.4,24.0,30.29,NE,46,8.7,8.7,26,0.00,,---,0.00,VWS V14.01,2013-03-10 17:45:00,
2013-03-10 10:51:00,59.7,24.3,30.29,NE,49,11.0,11.0,26,0.00,,---,0.00,VWS V14.01,2013-03-10 17:51:00,
2013-03-10 10:56:00,60.1,24.6,30.29,East,83,8.7,8.7,26,0.00,,---,0.00,VWS V14.01,2013-03-10 17:56:00,
2013-03-10 11:01:00,60.6,25.1,30.29,NE,45,5.8,8.3,26,0.00,,---,0.00,VWS V14.01,2013-03-10 18:01:00,
2013-03-10 11:07:00,60.6,25.1,30.29,NNE,19,5.4,8.1,26,0.00,,---,0.00,VWS V14.01,2013-03-10 18:07:00,
2013-03-10 11:12:00,60.6,25.1,30.29,NNW,345,5.8,8.7,26,0.00,,---,0.00,VWS V14.01,2013-03-10 18:12:00,
2013-03-10 11:17:00,61.3,24.3,30.29,South,181,4.9,4.9,24,0.00,,---,0.00,VWS V14.01,2013-03-10 18:17:00,
2013-03-10 11:22:00,62.1,24.9,30.29,WNW,295,3.6,4.0,24,0.00,,---,0.00,VWS V14.01,2013-03-10 18:22:00,
2013-03-10 11:28:00,61.5,24.4,30.26,WSW,256,3.1,5.4,24,0.00,,---,0.00,VWS V14.01,2013-03-10 18:28:00,
2013-03-10 11:33:00,61.5,24.4,30.26,West,260,10.5,10.5,24,0.00,,---,0.00,VWS V14.01,2013-03-10 18:33:00,
2013-03-10 11:39:00,61.7,24.6,30.26,West,268,8.1,8.3,24,0.00,,---,0.00,VWS V14.01,2013-03-10 18:39:00,
2013-03-10 11:44:00,61.7,24.6,30.26,SW,232,10.5,11.0,24,0.00,,---,0.00,VWS V14.01,2013-03-10 18:44:00,
2013-03-10 11:49:00,62.2,25.0,30.26,SSW,211,8.1,11.9,24,0.00,,---,0.00,VWS V14.01,2013-03-10 18:49:00,
2013-03-10 11:55:00,62.6,25.3,30.26,WSW,239,8.1,10.1,24,0.00,,---,0.00,VWS V14.01,2013-03-10 18:55:00,
2013-03-10 12:01:00,63.0,25.6,30.26,West,261,8.1,12.8,24,0.00,,---,0.00,VWS V14.01,2013-03-10 19:01:00,
2013-03-10 12:06:00,62.6,25.3,30.26,WSW,239,5.8,8.1,24,0.00,,---,0.00,VWS V14.01,2013-03-10 19:06:00,
2013-03-10 12:11:00,62.6,25.3,30.26,SW,231,6.3,6.3,24,0.00,,---,0.00,VWS V14.01,2013-03-10 19:11:00,
2013-03-10 12:17:00,62.8,25.5,30.26,WSW,237,6.3,9.2,24,0.00,,---,0.00,VWS V14.01,2013-03-10 19:17:00,
2013-03-10 12:22:00,62.4,25.2,30.26,West,262,8.1,10.1,24,0.00,,---,0.00,VWS V14.01,2013-03-10 19:22:00,
2013-03-10 12:28:00,62.4,25.2,30.26,WSW,252,10.1,10.1,24,0.00,,---,0.00,VWS V14.01,2013-03-10 19:28:00,
2013-03-10 12:33:00,63.0,25.6,30.26,WSW,246,10.1,11.9,24,0.00,,---,0.00,VWS V14.01,2013-03-10 19:33:00,
2013-03-10 12:39:00,63.1,25.8,30.23,SSW,213,8.3,8.3,24,0.00,,---,0.00,VWS V14.01,2013-03-10 19:39:00,
2013-03-10 12:44:00,63.7,26.2,30.23,West,260,10.1,12.8,24,0.00,,---,0.00,VWS V14.01,2013-03-10 19:44:00,
2013-03-10 12:49:00,63.3,25.9,30.23,WSW,258,10.1,11.9,24,0.00,,---,0.00,VWS V14.01,2013-03-10 19:49:00,
2013-03-10 12:55:00,63.7,26.2,30.26,SW,224,8.1,10.1,24,0.00,,---,0.00,VWS V14.01,2013-03-10 19:55:00,
2013-03-10 13:01:00,63.7,26.2,30.26,West,270,8.1,10.5,24,0.00,,---,0.00,VWS V14.01,2013-03-10 20:01:00,
2013-03-10 13:07:00,62.6,25.3,30.26,NW,322,3.6,6.3,24,0.00,,---,0.00,VWS V14.01,2013-03-10 20:07:00,
2013-03-10 20:26:00,45.7,23.9,30.23,NE,43,2.7,3.6,42,0.00,,---,0.00,VWS V14.01,2013-03-11 03:26:00,
2013-03-10 20:32:00,45.3,23.6,30.23,East,97,2.7,2.7,42,0.00,,---,0.00,VWS V14.01,2013-03-11 03:32:00,
2013-03-10 20:37:00,44.8,23.1,30.23,ESE,120,5.8,6.3,42,0.00,,---,0.00,VWS V14.01,2013-03-11 03:37:00,
2013-03-10 20:43:00,43.5,22.0,30.23,SE,136,3.6,3.6,42,0.00,,---,0.00,VWS V14.01,2013-03-11 03:43:00,
2013-03-10 20:48:00,43.0,21.5,30.23,North,8,3.1,4.0,42,0.00,,---,0.00,VWS V14.01,2013-03-11 03:48:00,
2013-03-10 20:54:00,42.6,22.0,30.23,North,3,4.0,4.9,44,0.00,,---,0.00,VWS V14.01,2013-03-11 03:54:00,
2013-03-10 21:00:00,42.3,21.6,30.26,NE,43,3.6,4.0,44,0.00,,---,0.00,VWS V14.01,2013-03-11 04:00:00,
2013-03-10 21:01:00,42.3,21.6,30.26,NE,46,3.6,4.0,44,0.00,,---,0.00,VWS V14.01,2013-03-11 04:01:00,
2013-03-10 21:03:00,42.1,21.5,30.26,ENE,67,2.7,4.9,44,0.00,,---,0.00,VWS V14.01,2013-03-11 04:03:00,
2013-03-10 21:07:00,42.1,21.5,30.26,ENE,62,2.2,3.1,44,0.00,,---,0.00,VWS V14.01,2013-03-11 04:07:00,
2013-03-10 21:12:00,41.7,21.2,30.26,ENE,58,2.2,2.2,44,0.00,,---,0.00,VWS V14.01,2013-03-11 04:12:00,
2013-03-10 21:16:00,41.4,20.8,30.26,SE,144,0.0,0.0,44,0.00,,---,0.00,VWS V14.01,2013-03-11 04:16:00,
2013-03-10 21:22:00,41.0,20.5,30.26,ENE,72,0.0,0.0,44,0.00,,---,0.00,VWS V14.01,2013-03-11 04:22:00,
2013-03-10 21:27:00,40.6,20.2,30.26,ESE,113,0.0,0.0,44,0.00,,---,0.00,VWS V14.01,2013-03-11 04:27:00,
2013-03-10 21:32:00,40.3,20.6,30.26,NE,56,5.4,5.4,45,0.00,,---,0.00,VWS V14.01,2013-03-11 04:32:00,
2013-03-10 21:38:00,39.6,20.0,30.26,NE,35,2.7,3.1,45,0.00,,---,0.00,VWS V14.01,2013-03-11 04:38:00,
2013-03-10 21:44:00,39.2,19.7,30.26,East,80,4.0,5.8,45,0.00,,---,0.00,VWS V14.01,2013-03-11 04:44:00,
2013-03-10 21:49:00,38.8,20.1,30.26,NE,49,2.7,3.1,46,0.00,,---,0.00,VWS V14.01,2013-03-11 04:49:00,
2013-03-10 21:55:00,38.7,19.9,30.26,NE,55,5.4,5.4,46,0.00,,---,0.00,VWS V14.01,2013-03-11 04:55:00,
2013-03-10 22:01:00,38.5,19.8,30.26,ENE,63,4.0,4.0,46,0.00,,---,0.00,VWS V14.01,2013-03-11 05:01:00,
2013-03-10 22:07:00,38.1,19.4,30.26,NE,45,0.0,0.0,46,0.00,,---,0.00,VWS V14.01,2013-03-11 05:07:00,
2013-03-10 22:12:00,37.9,19.3,30.26,NE,42,4.0,4.0,46,0.00,,---,0.00,VWS V14.01,2013-03-11 05:12:00,
2013-03-10 22:17:00,37.9,20.0,30.26,NE,36,0.0,3.1,48,0.00,,---,0.00,VWS V14.01,2013-03-11 05:17:00,
2013-03-10 22:23:00,37.8,19.9,30.26,SE,129,4.0,4.0,48,0.00,,---,0.00,VWS V14.01,2013-03-11 05:23:00,
2013-03-10 22:28:00,37.4,19.5,30.26,SE,135,4.9,5.8,48,0.00,,---,0.00,VWS V14.01,2013-03-11 05:28:00,
2013-03-10 22:33:00,36.9,19.0,30.26,SSE,163,5.8,6.3,48,0.00,,---,0.00,VWS V14.01,2013-03-11 05:33:00,
2013-03-10 22:39:00,36.3,18.5,30.26,ENE,64,2.7,3.6,48,0.00,,---,0.00,VWS V14.01,2013-03-11 05:39:00,
2013-03-10 22:45:00,36.3,19.2,30.26,East,80,3.6,4.0,50,0.00,,---,0.00,VWS V14.01,2013-03-11 05:45:00,
2013-03-10 22:51:00,36.1,19.1,30.26,NE,38,2.7,3.1,50,0.00,,---,0.00,VWS V14.01,2013-03-11 05:51:00,
2013-03-10 22:57:00,36.0,19.6,30.26,East,85,4.0,4.0,51,0.00,,---,0.00,VWS V14.01,2013-03-11 05:57:00,
2013-03-10 23:02:00,36.0,19.6,30.26,East,81,4.9,5.8,51,0.00,,---,0.00,VWS V14.01,2013-03-11 06:02:00,
2013-03-10 23:08:00,36.0,19.6,30.26,East,95,3.1,4.0,51,0.00,,---,0.00,VWS V14.01,2013-03-11 06:08:00,
2013-03-10 23:14:00,35.4,19.8,30.26,North,11,0.0,0.0,52,0.00,,---,0.00,VWS V14.01,2013-03-11 06:14:00,
2013-03-10 23:19:00,35.1,19.5,30.26,North,11,0.0,0.0,52,0.00,,---,0.00,VWS V14.01,2013-03-11 06:19:00,
2013-03-10 23:24:00,34.7,19.1,30.26,SSE,150,4.9,4.9,52,0.00,,---,0.00,VWS V14.01,2013-03-11 06:24:00,
2013-03-10 23:29:00,34.3,18.8,30.26,ESE,105,0.0,0.0,52,0.00,,---,0.00,VWS V14.01,2013-03-11 06:29:00,
2013-03-10 23:35:00,34.3,19.4,30.26,ENE,78,4.0,4.0,54,0.00,,---,0.00,VWS V14.01,2013-03-11 06:35:00,
2013-03-10 23:40:00,34.2,19.3,30.26,ENE,65,0.0,0.0,54,0.00,,---,0.00,VWS V14.01,2013-03-11 06:40:00,
2013-03-10 23:46:00,33.6,19.4,30.26,ENE,65,0.0,0.0,56,0.00,,---,0.00,VWS V14.01,2013-03-11 06:46:00,
2013-03-10 23:52:00,33.4,19.9,30.26,NE,49,4.0,4.5,57,0.00,,---,0.00,VWS V14.01,2013-03-11 06:52:00,
2013-03-10 23:57:00,33.4,19.9,30.26,East,84,2.2,2.7,57,0.00,,---,0.00,VWS V14.01,2013-03-11 06:57:00,